Time;durP1;ratioP1;P1;durP2;ratioP2;P2;SDS_P1;SDS_P2;PMS_P1;PMS_P2;Temp;Humidity;BMP_temperature;BMP_pressure;BME280_temperature;BME280_humidity;BME280_pressure;Samples;Min_cycle;Max_cycle;Signal;HPM_P1;HPM_P2
2022/02/10 00:06:19;;;;;;;11.13;8.00;;;;;;;6.03;79.28;99460.56;2249598;78;21043;-83
2022/02/10 00:22:10;;;;;;;13.17;8.30;;;;;;;6.04;78.96;99448.08;2227707;79;21024;-83
2022/02/10 00:25:39;;;;;;;12.97;8.93;;;;;;;6.05;79.02;99448.14;2248461;79;21000;-83
2022/02/10 00:34:29;;;;;;;12.30;8.83;;;;;;;6.08;78.88;99464.25;2227152;79;20933;-84
2022/02/10 00:37:37;;;;;;;13.00;8.23;;;;;;;6.04;78.68;99466.22;2249951;78;20936;-84
2022/02/10 00:40:30;;;;;;;11.57;8.40;;;;;;;6.02;78.75;99465.27;2249184;79;20951;-83
2022/02/10 00:43:30;;;;;;;11.83;8.37;;;;;;;6.03;78.80;99471.81;2249090;78;20927;-82
2022/02/10 00:46:31;;;;;;;14.60;9.57;;;;;;;6.04;78.80;99472.28;2249456;78;20940;-84
2022/02/10 00:49:31;;;;;;;14.33;8.70;;;;;;;6.04;78.77;99464.52;2248877;78;20909;-84
2022/02/10 00:52:32;;;;;;;13.67;8.00;;;;;;;6.05;78.70;99466.28;2248149;78;20979;-83
2022/02/10 00:55:35;;;;;;;10.90;8.23;;;;;;;6.03;78.82;99467.05;2250594;78;20897;-82
2022/02/10 00:58:39;;;;;;;12.40;8.63;;;;;;;6.05;78.95;99468.88;2281102;78;20946;-83
2022/02/10 01:12:10;;;;;;;12.60;8.30;;;;;;;6.09;78.80;99462.55;2279547;77;21009;-82
2022/02/10 01:30:56;;;;;;;13.17;7.97;;;;;;;6.14;78.79;99457.12;2280967;77;20974;-82
2022/02/10 01:33:56;;;;;;;12.13;8.13;;;;;;;6.12;78.52;99451.00;2281064;78;21392;-82
2022/02/10 01:36:56;;;;;;;12.73;8.37;;;;;;;6.09;78.77;99447.88;2281592;77;20954;-83
2022/02/10 01:40:07;;;;;;;14.17;8.50;;;;;;;6.11;78.66;99447.94;2281194;78;20938;-82
2022/02/10 02:06:12;;;;;;;17.80;10.37;;;;;;;6.11;79.47;99455.72;2249398;78;21434;-83
2022/02/10 02:09:11;;;;;;;24.63;10.57;;;;;;;6.11;79.55;99455.30;2248442;77;20982;-84
2022/02/10 02:12:10;;;;;;;19.13;10.13;;;;;;;6.13;79.46;99460.13;2248386;78;21383;-83
2022/02/10 02:15:10;;;;;;;15.00;9.93;;;;;;;6.14;79.59;99455.42;2248442;79;20928;-83
2022/02/10 02:18:11;;;;;;;14.07;9.20;;;;;;;6.16;79.56;99461.96;2249402;78;20931;-83
2022/02/10 02:21:11;;;;;;;18.40;10.83;;;;;;;6.16;79.45;99461.96;2249351;78;21393;-83
2022/02/10 02:24:15;;;;;;;14.20;9.27;;;;;;;6.17;79.52;99452.06;2249099;79;21330;-82
2022/02/10 02:27:17;;;;;;;13.50;9.03;;;;;;;6.16;79.49;99457.66;2249506;78;21360;-82
2022/02/10 02:30:17;;;;;;;14.37;9.37;;;;;;;6.16;79.60;99451.18;2249081;79;21055;-82
2022/02/10 02:37:14;;;;;;;12.90;9.73;;;;;;;6.15;79.81;99454.59;2248360;78;20964;-81
2022/02/10 03:06:13;;;;;;;15.33;10.97;;;;;;;5.90;81.08;99437.17;2282706;78;21049;-83
2022/02/10 03:09:07;;;;;;;17.70;11.63;;;;;;;5.86;81.34;99433.06;2280803;78;20941;-84
2022/02/10 03:12:03;;;;;;;17.37;12.20;;;;;;;5.86;81.60;99439.55;2281052;78;20965;-84
2022/02/10 03:15:08;;;;;;;14.93;12.17;;;;;;;5.85;81.66;99438.66;2282552;78;21380;-84
2022/02/10 03:18:18;;;;;;;17.43;13.33;;;;;;;5.84;81.76;99439.89;2282309;78;20990;-83
2022/02/10 03:21:39;;;;;;;19.83;12.93;;;;;;;5.80;81.93;99439.30;2280506;78;21435;-84
2022/02/10 04:04:33;;;;;;;18.13;13.57;;;;;;;5.84;81.62;99411.39;2251033;78;20940;-84
2022/02/10 04:11:06;;;;;;;18.80;14.17;;;;;;;5.85;81.36;99415.34;2229054;79;20983;-85
2022/02/10 04:14:08;;;;;;;18.13;13.47;;;;;;;5.85;81.39;99415.75;2246584;79;21091;-84
2022/02/10 04:17:22;;;;;;;20.47;12.80;;;;;;;5.85;81.30;99416.64;2249294;79;20980;-84
2022/02/10 04:23:34;;;;;;;19.10;13.03;;;;;;;5.87;81.18;99425.36;2227152;79;20975;-83
2022/02/10 04:26:40;;;;;;;16.63;12.90;;;;;;;5.88;81.15;99424.95;2246970;77;21019;-82
2022/02/10 04:37:32;;;;;;;18.77;13.22;;;;;;;5.88;81.17;99421.06;2227830;79;21240;-84
2022/02/10 04:56:09;;;;;;;17.40;13.50;;;;;;;6.15;80.72;99417.42;2250069;78;20967;-84
2022/02/10 04:59:24;;;;;;;16.97;12.73;;;;;;;6.09;80.63;99410.71;2247540;77;21048;-84
2022/02/10 05:02:00;;;;;;;22.93;14.10;;;;;;;6.06;80.60;99408.44;2246492;79;20944;-84
2022/02/10 05:15:08;;;;;;;21.00;15.20;;;;;;;6.00;80.82;99408.61;2249058;78;20964;-84
2022/02/10 05:18:32;;;;;;;23.40;14.30;;;;;;;5.97;80.81;99409.79;2245841;79;20984;-85
2022/02/10 05:21:54;;;;;;;23.93;15.17;;;;;;;5.99;80.93;99406.44;2247268;79;20956;-84
2022/02/10 05:24:09;;;;;;;23.57;15.73;;;;;;;5.99;80.93;99400.37;2247254;77;21076;-85
2022/02/10 05:33:42;;;;;;;25.60;16.17;;;;;;;5.94;80.75;99399.30;2251193;78;21003;-85
2022/02/10 05:36:38;;;;;;;23.27;15.83;;;;;;;5.92;80.79;99397.95;2247826;79;21031;-84
2022/02/10 05:39:43;;;;;;;25.67;15.87;;;;;;;5.90;80.84;99397.01;2248691;78;22096;-84
2022/02/10 05:49:39;;;;;;;24.87;16.43;;;;;;;6.36;80.35;99403.56;2226180;79;21029;-83
2022/02/10 05:58:29;;;;;;;24.60;16.77;;;;;;;5.96;80.31;99408.91;2248453;78;21059;-81
2022/02/10 06:53:52;;;;;;;24.10;17.17;;;;;;;5.94;79.51;99404.48;2265972;78;21314;-82
2022/02/10 06:57:24;;;;;;;26.27;18.17;;;;;;;5.99;79.49;99409.44;2287482;78;21079;-82
2022/02/10 07:06:51;;;;;;;22.27;16.73;;;;;;;6.08;78.95;99389.09;2266836;78;21026;-84
2022/02/10 07:58:59;;;;;;;28.07;19.97;;;;;;;6.67;79.03;99410.75;2251274;79;21039;-83
2022/02/10 08:25:52;;;;;;;32.53;22.67;;;;;;;6.94;78.93;99392.72;2243891;79;21189;-83
2022/02/10 08:29:09;;;;;;;28.37;19.73;;;;;;;7.57;76.79;99372.73;2247671;78;21074;-81
2022/02/10 09:00:32;;;;;;;28.10;18.53;;;;;;;8.81;73.21;99356.56;2260188;78;20985;-84
2022/02/10 09:09:54;;;;;;;27.17;17.87;;;;;;;8.97;72.38;99355.25;2268945;78;20997;-84
2022/02/10 09:12:53;;;;;;;23.37;16.67;;;;;;;9.04;72.19;99359.77;2287258;77;21054;-83
2022/02/10 09:55:16;;;;;;;18.43;13.50;;;;;;;9.01;69.72;99337.56;2285345;78;21061;-83
2022/02/10 10:01:01;;;;;;;22.20;15.30;;;;;;;8.75;70.06;99331.67;2266631;78;21012;-84
2022/02/10 10:03:59;;;;;;;22.00;15.93;;;;;;;8.64;70.06;99322.24;2288919;78;21040;-83
2022/02/10 10:07:09;;;;;;;22.53;15.33;;;;;;;8.60;70.29;99323.00;2289390;77;21035;-84
2022/02/10 10:10:18;;;;;;;22.43;15.50;;;;;;;8.63;69.81;99315.27;2289136;77;21034;-84
2022/02/10 10:19:39;;;;;;;24.40;16.77;;;;;;;8.63;69.59;99306.16;2266393;78;20982;-83
2022/02/10 10:22:44;;;;;;;23.67;15.93;;;;;;;8.63;69.55;99299.66;2288562;78;21081;-84
2022/02/10 10:46:01;;;;;;;24.17;17.27;;;;;;;9.30;67.69;99236.70;2289843;77;21981;-84
2022/02/10 10:51:55;;;;;;;25.27;17.00;;;;;;;9.39;68.76;99229.09;2266780;78;21355;-82
2022/02/10 10:54:57;;;;;;;23.13;16.10;;;;;;;9.34;67.62;99225.08;2286042;78;21446;-83
2022/02/10 10:57:48;;;;;;;22.67;16.77;;;;;;;9.40;68.41;99215.22;2286877;78;21025;-84
2022/02/10 11:25:10;;;;;;;23.33;14.97;;;;;;;9.70;66.93;99176.81;2280654;78;22095;-82
2022/02/10 11:36:32;;;;;;;20.67;14.60;;;;;;;9.99;66.07;99153.92;2279951;78;21021;-85
2022/02/10 11:42:48;;;;;;;24.03;14.67;;;;;;;10.10;66.30;99138.47;2259943;78;21021;-85
2022/02/10 12:33:00;;;;;;;24.17;15.00;;;;;;;10.43;63.48;99052.12;2245389;79;21012;-82
2022/02/10 14:11:07;;;;;;;17.27;9.13;;;;;;;9.96;62.66;98971.32;2244639;78;21031;-76
2022/02/10 14:13:49;;;;;;;18.30;9.90;;;;;;;10.04;62.38;98963.63;2242209;79;21022;-80
2022/02/10 14:16:48;;;;;;;24.03;10.40;;;;;;;10.09;62.65;98967.17;2246145;76;21008;-78
2022/02/10 14:19:58;;;;;;;14.60;9.73;;;;;;;10.10;62.69;98967.20;2245484;77;21066;-76
2022/02/10 14:23:04;;;;;;;17.83;9.60;;;;;;;10.09;62.95;98960.23;2244289;79;21265;-77
2022/02/10 14:26:08;;;;;;;17.57;8.97;;;;;;;10.05;63.24;98966.25;2244369;79;21026;-77
2022/02/10 14:29:02;;;;;;;15.43;9.83;;;;;;;10.01;62.74;98953.14;2244098;79;20976;-77
2022/02/10 14:32:03;;;;;;;19.97;10.07;;;;;;;9.92;63.77;98960.39;2244676;78;21342;-79
2022/02/10 14:35:23;;;;;;;18.35;9.43;;;;;;;9.86;63.84;98954.65;2245081;78;21022;-78
2022/02/10 14:38:32;;;;;;;20.93;10.57;;;;;;;9.81;63.85;98945.00;2242203;79;21395;-78
2022/02/10 15:18:03;;;;;;;50.37;13.83;;;;;;;9.05;65.60;98897.61;2290315;77;20943;-79
2022/02/10 16:19:07;;;;;;;20.93;11.33;;;;;;;8.17;68.23;98828.14;2281196;78;21455;-79
2022/02/10 16:25:13;;;;;;;29.70;12.97;;;;;;;7.93;68.85;98824.17;2259423;78;21007;-79
2022/02/10 16:28:30;;;;;;;37.07;14.00;;;;;;;7.86;69.09;98822.28;2280795;78;20902;-78
2022/02/10 16:31:28;;;;;;;24.55;12.07;;;;;;;8.34;72.34;98825.49;2281544;78;21011;-80
2022/02/10 16:34:29;;;;;;;21.20;11.77;;;;;;;8.43;68.83;98823.08;2281037;78;20984;-79
2022/02/10 16:37:29;;;;;;;24.17;13.37;;;;;;;8.18;68.81;98820.37;2280611;78;20972;-79
2022/02/10 16:40:30;;;;;;;21.43;13.10;;;;;;;8.02;69.08;98825.21;2280096;78;21277;-79
2022/02/10 16:43:30;;;;;;;20.80;13.30;;;;;;;7.87;69.33;98820.56;2280703;78;21011;-79
2022/02/10 16:46:31;;;;;;;29.63;12.60;;;;;;;7.76;69.66;98818.11;2279677;78;21380;-79
2022/02/10 16:49:34;;;;;;;21.43;12.23;;;;;;;7.69;69.81;98818.39;2280307;78;21356;-80
2022/02/10 16:52:39;;;;;;;19.63;11.40;;;;;;;7.63;69.95;98819.13;2280329;78;21053;-79
2022/02/10 16:58:56;;;;;;;18.30;11.23;;;;;;;7.56;70.14;98809.86;2258069;78;21449;-79
2022/02/10 17:18:28;;;;;;;24.70;13.63;;;;;;;7.27;71.15;98807.88;2249845;78;21044;-85
2022/02/10 17:27:53;;;;;;;24.70;9.97;;;;;;;7.12;71.35;98821.78;2248706;79;21035;-85
2022/02/10 17:44:04;;;;;;;20.57;13.73;;;;;;;7.28;71.16;98839.49;2248811;78;21063;-83
2022/02/10 17:46:58;;;;;;;24.60;14.70;;;;;;;7.07;71.51;98849.34;2245053;79;21657;-84
2022/02/10 17:53:26;;;;;;;23.17;14.03;;;;;;;6.77;72.33;98840.30;2247386;78;21407;-83
2022/02/10 17:56:16;;;;;;;22.70;12.90;;;;;;;6.65;72.67;98835.66;2246429;79;21030;-85
2022/02/10 17:59:17;;;;;;;30.00;14.37;;;;;;;6.55;72.91;98829.34;2248368;79;20951;-85
2022/02/10 18:02:17;;;;;;;23.37;14.03;;;;;;;6.48;73.14;98826.55;2274719;77;21000;-85
2022/02/10 18:08:23;;;;;;;25.17;14.47;;;;;;;6.33;73.69;98827.00;2278182;78;21021;-83
2022/02/10 18:14:39;;;;;;;24.57;14.03;;;;;;;6.22;74.10;98830.58;2261617;78;21018;-85
2022/02/10 18:17:41;;;;;;;30.43;16.23;;;;;;;6.19;74.59;98830.91;2281617;77;21016;-84
2022/02/10 18:20:43;;;;;;;25.00;15.87;;;;;;;6.18;74.26;98836.93;2281749;78;21018;-83
2022/02/10 18:24:19;;;;;;;24.93;14.27;;;;;;;6.17;74.55;98837.77;2281510;78;21045;-84
2022/02/10 18:26:55;;;;;;;41.80;16.83;;;;;;;6.18;74.75;98832.63;2277952;78;21045;-84
2022/02/10 19:06:43;;;;;;;28.17;15.33;;;;;;;6.13;74.89;98830.73;2221009;79;21003;-84
2022/02/10 19:09:25;;;;;;;24.87;15.60;;;;;;;6.13;74.77;98831.61;2238999;79;20924;-84
2022/02/10 19:12:26;;;;;;;27.30;16.07;;;;;;;6.18;74.87;98832.63;2240276;79;20972;-84
2022/02/10 19:15:25;;;;;;;25.83;14.97;;;;;;;6.25;74.81;98828.08;2241077;79;20943;-84
2022/02/10 19:18:25;;;;;;;27.87;15.63;;;;;;;6.34;74.79;98827.45;2242350;79;21319;-82
2022/02/10 19:21:25;;;;;;;25.93;15.27;;;;;;;6.42;74.80;98825.95;2241519;79;20898;-83
2022/02/10 19:24:26;;;;;;;23.37;14.97;;;;;;;6.50;74.63;98828.34;2240203;79;20952;-83
2022/02/10 19:27:26;;;;;;;25.47;14.73;;;;;;;6.58;74.51;98831.14;2240667;79;20984;-83
2022/02/10 19:30:29;;;;;;;25.90;15.63;;;;;;;6.64;74.48;98834.78;2240092;79;20952;-84
2022/02/10 19:33:29;;;;;;;24.33;13.80;;;;;;;6.72;74.26;98831.09;2241086;79;21055;-84
2022/02/10 19:36:30;;;;;;;26.93;15.30;;;;;;;6.80;74.00;98837.38;2240297;79;20975;-84
2022/02/10 19:39:30;;;;;;;28.63;15.53;;;;;;;6.86;73.93;98836.66;2239944;79;20956;-83
2022/02/10 19:42:32;;;;;;;23.70;14.23;;;;;;;6.92;73.95;98833.80;2240580;79;20889;-84
2022/02/10 19:45:33;;;;;;;21.50;14.07;;;;;;;6.97;73.80;98834.83;2240842;79;21000;-83
2022/02/10 19:48:34;;;;;;;25.10;14.07;;;;;;;7.02;73.69;98837.54;2240785;79;20937;-83
2022/02/10 19:51:34;;;;;;;22.90;13.97;;;;;;;7.06;73.58;98839.80;2240639;79;21351;-85
2022/02/10 19:54:40;;;;;;;24.50;14.27;;;;;;;7.10;73.54;98840.33;2240720;79;21387;-85
2022/02/10 19:57:39;;;;;;;24.93;14.60;;;;;;;7.15;73.25;98843.50;2240787;79;21424;-83
2022/02/10 20:00:43;;;;;;;22.20;13.33;;;;;;;7.21;73.23;98846.67;2246389;78;21034;-85
2022/02/10 20:03:41;;;;;;;29.77;14.57;;;;;;;7.24;73.23;98845.03;2281642;77;21034;-84
2022/02/10 20:06:42;;;;;;;26.87;15.43;;;;;;;7.27;73.18;98842.93;2282409;78;21357;-84
2022/02/10 20:09:42;;;;;;;25.23;15.43;;;;;;;7.30;73.15;98839.11;2282246;78;21000;-84
2022/02/10 20:12:43;;;;;;;30.70;15.67;;;;;;;7.31;72.99;98843.46;2281226;78;20981;-83
2022/02/10 20:15:44;;;;;;;30.27;14.83;;;;;;;7.33;72.93;98843.08;2281139;78;20989;-85
2022/02/10 20:18:48;;;;;;;25.10;14.57;;;;;;;7.40;72.98;98844.98;2280663;78;20984;-84
2022/02/10 20:21:46;;;;;;;26.87;15.60;;;;;;;7.43;72.70;98845.06;2280594;78;20958;-84
2022/02/10 20:24:47;;;;;;;33.67;15.67;;;;;;;7.45;72.62;98842.08;2280269;78;21375;-82
2022/02/10 20:27:48;;;;;;;29.67;14.70;;;;;;;7.46;72.57;98844.25;2281582;78;21165;-83
2022/02/10 20:30:48;;;;;;;21.97;12.97;;;;;;;7.47;72.36;98840.39;2281269;78;20990;-85
2022/02/10 20:33:49;;;;;;;21.07;13.47;;;;;;;7.47;72.26;98846.89;2280821;78;20982;-83
2022/02/10 20:36:49;;;;;;;22.60;13.10;;;;;;;7.50;72.26;98843.06;2281017;78;20966;-84
2022/02/10 20:39:50;;;;;;;23.90;12.90;;;;;;;7.53;71.95;98837.94;2282307;78;20937;-85
2022/02/10 20:42:50;;;;;;;22.37;12.77;;;;;;;7.57;71.97;98841.49;2282410;78;20902;-84
2022/02/10 20:45:54;;;;;;;20.33;12.30;;;;;;;7.59;71.56;98840.69;2282258;78;20969;-84
2022/02/10 20:48:54;;;;;;;20.03;12.03;;;;;;;7.61;71.80;98839.42;2282506;77;21030;-85
2022/02/10 20:51:54;;;;;;;25.37;13.37;;;;;;;7.62;71.77;98845.95;2282058;78;22003;-84
2022/02/10 20:55:00;;;;;;;23.17;12.57;;;;;;;7.63;71.60;98842.52;2260666;78;21036;-84
2022/02/10 20:58:02;;;;;;;25.67;15.07;;;;;;;7.62;71.65;98838.16;2260144;78;21017;-84
2022/02/10 21:01:03;;;;;;;27.90;13.13;;;;;;;7.63;71.82;98846.41;2275605;77;21003;-84
2022/02/10 21:04:05;;;;;;;21.73;11.83;;;;;;;7.65;71.47;98845.14;2249195;78;20987;-84
2022/02/10 21:07:14;;;;;;;28.93;12.87;;;;;;;7.67;76.56;98837.84;2249629;79;21390;-83
2022/02/10 21:10:14;;;;;;;32.90;13.25;;;;;;;10.01;80.69;98835.36;2227052;79;21497;-84
2022/02/10 21:13:13;;;;;;;29.30;12.00;;;;;;;12.23;76.67;98831.95;2249956;79;21008;-84
2022/02/10 21:16:14;;;;;;;30.83;13.00;;;;;;;13.71;65.28;98831.45;2250066;78;20968;-83
2022/02/10 21:19:17;;;;;;;29.30;11.67;;;;;;;14.24;64.72;98825.69;2250231;79;20936;-83
2022/02/10 21:22:19;;;;;;;26.97;11.05;;;;;;;15.30;58.48;98822.99;2250220;79;20936;-84
2022/02/10 21:25:24;;;;;;;35.35;11.50;;;;;;;16.14;62.48;98819.66;2249094;78;20998;-85
2022/02/10 21:28:29;;;;;;;25.45;12.15;;;;;;;16.56;56.89;98819.18;2247939;79;21067;-84
2022/02/10 21:31:27;;;;;;;25.15;12.30;;;;;;;16.58;50.05;98818.29;2249417;79;21402;-84
2022/02/10 21:34:33;;;;;;;28.30;11.15;;;;;;;15.83;55.68;98814.70;2248653;79;21070;-85
2022/02/10 21:37:31;;;;;;;24.67;10.93;;;;;;;16.70;55.36;98814.22;2248886;76;21000;-84
2022/02/10 21:47:35;;;;;;;23.77;12.53;;;;;;;16.55;46.50;98812.61;2226950;79;21257;-83
2022/02/10 22:07:33;;;;;;;20.80;13.27;;;;;;;9.20;61.40;98844.92;2245482;79;21026;-83
2022/02/10 22:19:12;;;;;;;25.40;14.37;;;;;;;8.21;65.38;98854.23;2244295;79;21024;-83
2022/02/10 22:22:13;;;;;;;24.20;11.63;;;;;;;8.06;66.10;98851.31;2245591;79;20993;-81
2022/02/10 22:25:15;;;;;;;20.83;13.00;;;;;;;7.96;66.60;98848.05;2246334;79;21004;-82
2022/02/10 22:34:52;;;;;;;19.90;12.40;;;;;;;7.67;68.26;98862.52;2224010;79;21315;-83
2022/02/10 22:37:52;;;;;;;23.00;13.07;;;;;;;7.61;69.12;98873.19;2245691;79;21018;-83
2022/02/10 22:41:04;;;;;;;20.87;12.93;;;;;;;7.53;69.70;98870.83;2246270;79;21366;-83
2022/02/10 22:44:03;;;;;;;24.40;13.37;;;;;;;7.46;69.74;98881.91;2244327;79;21047;-84
2022/02/10 22:47:04;;;;;;;17.10;12.17;;;;;;;7.40;70.81;98887.83;2246214;79;20944;-83
2022/02/10 22:50:05;;;;;;;26.30;14.10;;;;;;;7.31;71.44;98893.67;2246141;79;20944;-83
2022/02/10 22:53:05;;;;;;;25.60;15.70;;;;;;;7.28;71.41;98896.20;2246715;79;20980;-83
2022/02/10 22:56:08;;;;;;;30.67;14.53;;;;;;;7.23;72.13;98903.41;2246278;79;21067;-84
2022/02/10 22:59:09;;;;;;;32.40;16.33;;;;;;;7.13;73.33;98916.98;2247245;79;21335;-83
2022/02/10 23:02:09;;;;;;;27.20;15.27;;;;;;;7.13;73.33;98916.98;2265155;77;21136;-83
2022/02/10 23:05:10;;;;;;;23.40;14.93;;;;;;;7.12;72.71;98919.13;2268899;78;21520;-83
2022/02/10 23:08:11;;;;;;;24.27;15.47;;;;;;;7.10;73.29;98928.16;2292361;78;20981;-83
2022/02/10 23:11:13;;;;;;;21.77;14.93;;;;;;;7.10;73.10;98923.39;2293013;78;21023;-84
2022/02/10 23:14:16;;;;;;;29.48;15.38;;;;;;;7.06;73.79;98926.33;2270201;78;21040;-83
2022/02/10 23:17:16;;;;;;;30.87;16.17;;;;;;;7.04;73.72;98918.92;2293652;78;20931;-83
2022/02/10 23:20:19;;;;;;;28.60;16.50;;;;;;;7.01;73.82;98921.02;2292731;78;20920;-82
2022/02/10 23:23:19;;;;;;;27.50;15.80;;;;;;;7.01;73.77;98924.91;2292273;78;20909;-83
2022/02/10 23:29:24;;;;;;;26.45;16.32;;;;;;;7.01;73.91;98921.02;2269877;78;21020;-83
2022/02/10 23:32:26;;;;;;;25.10;15.50;;;;;;;6.99;73.95;98917.50;2292091;77;20996;-84
2022/02/10 23:36:18;;;;;;;26.60;17.27;;;;;;;6.98;74.10;98925.23;2293256;78;20972;-83
2022/02/10 23:38:33;;;;;;;26.10;15.30;;;;;;;6.96;74.07;98922.60;2289060;78;21036;-83
2022/02/10 23:44:39;;;;;;;28.98;15.53;;;;;;;6.93;74.78;98926.37;2269579;78;20965;-84
2022/02/10 23:47:38;;;;;;;34.40;18.67;;;;;;;6.89;74.96;98927.13;2292180;78;20948;-83
2022/02/10 23:50:38;;;;;;;39.07;20.10;;;;;;;6.88;75.04;98925.80;2292893;78;20952;-83
2022/02/10 23:53:39;;;;;;;35.50;19.60;;;;;;;6.85;74.84;98928.30;2292269;78;21411;-83
2022/02/10 23:56:45;;;;;;;40.97;20.30;;;;;;;6.84;75.15;98928.72;2291675;78;21303;-84
